Time;durP1;ratioP1;P1;durP2;ratioP2;P2;SDS_P1;SDS_P2;PMS_P1;PMS_P2;Temp;Humidity;BMP_temperature;BMP_pressure;BME280_temperature;BME280_humidity;BME280_pressure;Samples;Min_cycle;Max_cycle;Signal;HPM_P1;HPM_P2
2023/07/30 00:01:01;;;;;;;8.23;4.00;;;;;;;;;;6223867;23;20418;-79
2023/07/30 00:03:29;;;;;;;6.67;5.73;;;;;;;;;;6224602;23;20510;-79
2023/07/30 00:05:57;;;;;;;8.20;4.67;;;;;;;;;;6228022;23;20410;-78
2023/07/30 00:08:28;;;;;;;6.37;4.33;;;;;;;;;;6226913;23;20418;-78
2023/07/30 00:10:58;;;;;;;4.67;3.90;;;;;;;;;;6226011;23;20386;-78
2023/07/30 00:13:26;;;;;;;6.67;3.90;;;;;;;;;;6228990;23;20789;-78
2023/07/30 00:15:53;;;;;;;5.93;3.80;;;;;;;;;;6225617;23;20425;-78
2023/07/30 00:18:22;;;;;;;5.80;4.00;;;;;;;;;;6226971;23;20827;-77
2023/07/30 00:20:49;;;;;;;5.93;4.50;;;;;;;;;;6226420;23;20450;-77
2023/07/30 00:23:19;;;;;;;6.97;4.30;;;;;;;;;;6224312;23;20862;-78
2023/07/30 00:25:48;;;;;;;5.87;4.03;;;;;;;;;;6220922;23;20394;-78
2023/07/30 00:28:16;;;;;;;5.60;4.70;;;;;;;;;;6228391;23;20700;-78
2023/07/30 00:30:43;;;;;;;5.13;4.07;;;;;;;;;;6228320;23;20413;-78
2023/07/30 00:33:11;;;;;;;5.20;3.90;;;;;;;;;;6232868;23;20413;-78
2023/07/30 00:35:39;;;;;;;5.63;3.60;;;;;;;;;;6230234;23;20421;-78
2023/07/30 00:38:06;;;;;;;4.90;3.80;;;;;;;;;;6231853;23;20497;-78
2023/07/30 00:40:34;;;;;;;6.70;3.90;;;;;;;;;;6232725;23;20386;-77
2023/07/30 00:43:03;;;;;;;4.37;3.50;;;;;;;;;;6230594;23;20421;-77
2023/07/30 00:45:31;;;;;;;4.90;3.93;;;;;;;;;;6233999;23;20416;-80
2023/07/30 00:47:59;;;;;;;7.80;3.70;;;;;;;;;;6233314;23;20426;-79
2023/07/30 00:50:26;;;;;;;4.47;3.10;;;;;;;;;;6236840;23;20370;-79
2023/07/30 00:52:55;;;;;;;5.30;4.03;;;;;;;;;;6229150;23;20703;-79
2023/07/30 00:55:23;;;;;;;5.60;3.87;;;;;;;;;;6230263;23;20445;-79
2023/07/30 00:57:50;;;;;;;6.37;3.87;;;;;;;;;;6232079;23;20424;-79
2023/07/30 01:00:19;;;;;;;6.20;4.27;;;;;;;;;;6230676;23;20414;-79
2023/07/30 01:02:48;;;;;;;5.47;4.23;;;;;;;;;;6229640;23;20693;-79
2023/07/30 01:05:15;;;;;;;5.43;4.00;;;;;;;;;;6230567;23;20414;-80
2023/07/30 01:07:44;;;;;;;6.30;4.30;;;;;;;;;;6227124;23;20465;-78
2023/07/30 01:10:11;;;;;;;4.83;3.57;;;;;;;;;;6231591;23;20831;-79
2023/07/30 01:12:39;;;;;;;5.47;4.40;;;;;;;;;;6228814;23;20803;-78
2023/07/30 01:15:08;;;;;;;4.87;3.73;;;;;;;;;;6227085;23;20722;-79
2023/07/30 01:17:38;;;;;;;7.80;3.87;;;;;;;;;;6226113;23;20878;-78
2023/07/30 01:20:15;;;;;;;6.27;4.27;;;;;;;;;;6226101;23;20418;-78
2023/07/30 01:22:43;;;;;;;5.37;3.93;;;;;;;;;;6227544;23;20445;-78
2023/07/30 01:25:11;;;;;;;6.23;4.23;;;;;;;;;;6229623;23;20476;-78
2023/07/30 01:27:41;;;;;;;5.83;3.80;;;;;;;;;;6226904;23;20446;-78
2023/07/30 01:30:15;;;;;;;6.73;4.07;;;;;;;;;;6229953;23;20379;-78
2023/07/30 01:32:42;;;;;;;5.47;4.03;;;;;;;;;;6223623;23;20438;-79
2023/07/30 01:35:10;;;;;;;6.03;4.17;;;;;;;;;;6225948;23;20446;-79
2023/07/30 01:37:39;;;;;;;10.27;4.43;;;;;;;;;;6225840;23;20413;-79
2023/07/30 01:40:10;;;;;;;6.20;4.30;;;;;;;;;;6222626;23;20434;-79
2023/07/30 01:42:38;;;;;;;4.97;3.83;;;;;;;;;;6230268;23;20428;-79
2023/07/30 01:45:09;;;;;;;5.10;3.93;;;;;;;;;;6228345;23;20504;-79
2023/07/30 01:47:36;;;;;;;5.03;4.33;;;;;;;;;;6224997;23;20429;-79
2023/07/30 01:50:08;;;;;;;6.43;4.47;;;;;;;;;;6223705;23;20421;-79
2023/07/30 01:52:39;;;;;;;8.33;3.93;;;;;;;;;;6224787;23;20449;-80
2023/07/30 01:55:07;;;;;;;4.70;3.30;;;;;;;;;;6220513;23;20959;-79
2023/07/30 01:57:36;;;;;;;4.97;4.00;;;;;;;;;;6224488;23;20406;-79
2023/07/30 02:00:16;;;;;;;6.10;4.87;;;;;;;;;;6223246;23;20414;-79
2023/07/30 02:02:43;;;;;;;7.50;4.73;;;;;;;;;;6229096;23;20422;-79
2023/07/30 02:05:11;;;;;;;8.43;4.30;;;;;;;;;;6231361;23;20418;-79
2023/07/30 02:07:38;;;;;;;6.13;4.40;;;;;;;;;;6228882;23;20674;-81
2023/07/30 02:10:09;;;;;;;5.90;5.10;;;;;;;;;;6231241;23;20426;-78
2023/07/30 02:12:38;;;;;;;6.03;4.73;;;;;;;;;;6224237;23;20452;-79
2023/07/30 02:15:06;;;;;;;6.47;4.80;;;;;;;;;;6228781;23;20417;-78
2023/07/30 02:17:34;;;;;;;5.90;4.60;;;;;;;;;;6231578;23;20414;-77
2023/07/30 02:20:09;;;;;;;5.43;4.30;;;;;;;;;;6224647;23;20510;-77
2023/07/30 02:22:37;;;;;;;5.60;4.10;;;;;;;;;;6227596;23;20394;-78
2023/07/30 02:25:04;;;;;;;5.50;4.60;;;;;;;;;;6230438;23;20433;-77
2023/07/30 02:27:32;;;;;;;5.47;4.37;;;;;;;;;;6232111;23;20473;-78
2023/07/30 02:30:05;;;;;;;7.80;5.43;;;;;;;;;;6231616;23;20410;-78
2023/07/30 02:32:33;;;;;;;7.33;4.70;;;;;;;;;;6227086;23;20813;-77
2023/07/30 02:35:00;;;;;;;6.67;5.00;;;;;;;;;;6227235;23;20398;-78
2023/07/30 02:37:28;;;;;;;6.10;4.50;;;;;;;;;;6223902;23;20406;-79
2023/07/30 02:39:55;;;;;;;6.03;4.70;;;;;;;;;;6224329;23;20460;-77
2023/07/30 02:42:22;;;;;;;9.73;5.90;;;;;;;;;;6230826;23;20406;-79
2023/07/30 02:44:50;;;;;;;9.33;6.43;;;;;;;;;;6230423;23;20442;-78
2023/07/30 02:47:19;;;;;;;7.87;5.03;;;;;;;;;;6231034;23;20446;-78
2023/07/30 02:49:46;;;;;;;7.50;5.70;;;;;;;;;;6231007;23;20796;-79
2023/07/30 02:52:14;;;;;;;8.43;5.80;;;;;;;;;;6231409;23;20383;-79
2023/07/30 02:54:42;;;;;;;7.57;5.77;;;;;;;;;;6231162;23;20549;-79
2023/07/30 02:57:10;;;;;;;5.70;5.10;;;;;;;;;;6230350;23;20740;-79
2023/07/30 02:59:37;;;;;;;9.93;6.50;;;;;;;;;;6234025;23;20492;-79
2023/07/30 03:02:06;;;;;;;7.10;5.90;;;;;;;;;;6228906;23;20414;-78
2023/07/30 03:04:35;;;;;;;9.20;5.80;;;;;;;;;;6227318;23;20363;-78
2023/07/30 03:07:02;;;;;;;6.90;5.70;;;;;;;;;;6224205;23;20450;-78
2023/07/30 03:09:30;;;;;;;10.00;6.27;;;;;;;;;;6227290;23;20399;-79
2023/07/30 03:12:00;;;;;;;7.13;6.03;;;;;;;;;;6225277;23;20441;-80
2023/07/30 03:14:27;;;;;;;7.00;5.77;;;;;;;;;;6229892;23;20414;-79
2023/07/30 03:16:55;;;;;;;7.67;5.67;;;;;;;;;;6225874;23;20398;-80
2023/07/30 03:19:22;;;;;;;7.63;6.00;;;;;;;;;;6228859;23;20418;-78
2023/07/30 03:21:51;;;;;;;7.30;5.80;;;;;;;;;;6225221;23;20414;-78
2023/07/30 03:24:18;;;;;;;7.33;4.67;;;;;;;;;;6225465;23;20460;-77
2023/07/30 03:26:46;;;;;;;8.40;5.43;;;;;;;;;;6223363;23;20425;-79
2023/07/30 03:29:13;;;;;;;7.70;6.07;;;;;;;;;;6226058;23;20827;-79
2023/07/30 03:31:41;;;;;;;11.00;5.47;;;;;;;;;;6226150;23;20408;-77
2023/07/30 03:34:09;;;;;;;6.90;5.30;;;;;;;;;;6226091;23;20393;-78
2023/07/30 03:36:36;;;;;;;7.90;5.30;;;;;;;;;;6226536;23;20417;-79
2023/07/30 03:39:05;;;;;;;7.03;5.57;;;;;;;;;;6221300;23;20433;-78
2023/07/30 03:41:33;;;;;;;7.10;5.33;;;;;;;;;;6227676;23;20736;-78
2023/07/30 03:44:00;;;;;;;7.73;5.40;;;;;;;;;;6228938;23;20780;-77
2023/07/30 03:46:28;;;;;;;7.10;4.83;;;;;;;;;;6222437;23;20808;-78
2023/07/30 03:48:55;;;;;;;8.77;5.27;;;;;;;;;;6223906;23;20884;-78
2023/07/30 03:51:22;;;;;;;7.80;5.17;;;;;;;;;;6221856;23;20482;-78
2023/07/30 03:53:50;;;;;;;10.20;5.57;;;;;;;;;;6222082;23;20859;-79
2023/07/30 03:56:19;;;;;;;7.37;5.40;;;;;;;;;;6221663;23;20683;-77
2023/07/30 03:58:46;;;;;;;9.43;4.80;;;;;;;;;;6222496;23;20517;-79
2023/07/30 04:01:21;;;;;;;10.93;4.93;;;;;;;;;;6224265;23;20458;-78
2023/07/30 04:03:48;;;;;;;9.83;4.70;;;;;;;;;;6223241;23;20418;-78
2023/07/30 04:06:16;;;;;;;7.30;4.87;;;;;;;;;;6223853;23;20425;-80
2023/07/30 04:08:43;;;;;;;7.90;4.80;;;;;;;;;;6223065;23;20544;-77
2023/07/30 04:11:11;;;;;;;11.77;4.27;;;;;;;;;;6226706;23;20536;-78
2023/07/30 04:13:40;;;;;;;7.10;5.27;;;;;;;;;;6226068;23;20441;-79
2023/07/30 04:16:08;;;;;;;6.80;4.60;;;;;;;;;;6226876;23;20496;-77
2023/07/30 04:18:35;;;;;;;7.37;4.87;;;;;;;;;;6223074;23;20421;-78
2023/07/30 04:21:03;;;;;;;5.90;4.90;;;;;;;;;;6222282;23;20418;-78
2023/07/30 04:23:30;;;;;;;7.30;4.70;;;;;;;;;;6222256;23;20545;-78
2023/07/30 04:25:58;;;;;;;9.27;5.43;;;;;;;;;;6218620;23;20486;-79
2023/07/30 04:28:25;;;;;;;8.47;4.43;;;;;;;;;;6222817;23;20458;-78
2023/07/30 04:30:54;;;;;;;6.97;4.13;;;;;;;;;;6221487;23;20689;-79
2023/07/30 04:33:22;;;;;;;10.30;5.10;;;;;;;;;;6225674;23;20417;-78
2023/07/30 04:35:49;;;;;;;6.87;5.20;;;;;;;;;;6222524;23;20449;-78
2023/07/30 04:38:17;;;;;;;10.00;5.27;;;;;;;;;;6225348;23;20410;-78
2023/07/30 04:40:44;;;;;;;8.30;5.03;;;;;;;;;;6225601;23;20796;-79
2023/07/30 04:43:12;;;;;;;8.10;5.07;;;;;;;;;;6225203;23;20414;-79
2023/07/30 04:45:40;;;;;;;7.37;5.60;;;;;;;;;;6224408;23;20426;-79
2023/07/30 04:48:11;;;;;;;6.87;4.40;;;;;;;;;;6226287;23;20449;-78
2023/07/30 04:50:41;;;;;;;5.20;4.30;;;;;;;;;;6221766;23;20440;-79
2023/07/30 04:53:09;;;;;;;9.87;4.97;;;;;;;;;;6224099;23;20413;-77
2023/07/30 04:55:37;;;;;;;7.93;4.50;;;;;;;;;;6224188;23;20433;-79
2023/07/30 04:58:04;;;;;;;5.90;3.97;;;;;;;;;;6227848;23;20433;-78
2023/07/30 05:00:32;;;;;;;10.73;4.70;;;;;;;;;;6228714;23;20425;-79
2023/07/30 05:03:00;;;;;;;7.70;5.03;;;;;;;;;;6225569;23;20390;-79
2023/07/30 05:05:29;;;;;;;6.77;5.10;;;;;;;;;;6225647;23;20478;-79
2023/07/30 05:07:56;;;;;;;5.57;4.60;;;;;;;;;;6224265;23;20686;-79
2023/07/30 05:10:24;;;;;;;7.00;4.20;;;;;;;;;;6226300;23;20425;-79
2023/07/30 05:12:51;;;;;;;5.60;4.07;;;;;;;;;;6223139;23;20428;-78
2023/07/30 05:15:19;;;;;;;6.60;3.80;;;;;;;;;;6223454;23;20410;-79
2023/07/30 05:17:47;;;;;;;10.23;5.87;;;;;;;;;;6224214;23;20391;-79
2023/07/30 05:20:16;;;;;;;5.13;3.60;;;;;;;;;;6225218;23;20398;-76
2023/07/30 05:22:45;;;;;;;5.93;4.00;;;;;;;;;;6224689;23;20417;-78
2023/07/30 05:25:12;;;;;;;5.10;3.90;;;;;;;;;;6224940;23;20417;-79
2023/07/30 05:27:40;;;;;;;8.30;4.27;;;;;;;;;;6226132;23;20867;-78
2023/07/30 05:30:08;;;;;;;6.67;4.87;;;;;;;;;;6227793;23;20410;-78
2023/07/30 05:32:36;;;;;;;8.50;5.20;;;;;;;;;;6223316;23;20391;-77
2023/07/30 05:35:03;;;;;;;6.43;4.40;;;;;;;;;;6222488;23;20805;-79
2023/07/30 05:37:31;;;;;;;5.83;5.23;;;;;;;;;;6223937;23;20414;-79
2023/07/30 05:40:00;;;;;;;8.37;6.00;;;;;;;;;;6222013;23;20426;-77
2023/07/30 05:42:27;;;;;;;6.70;5.13;;;;;;;;;;6227100;23;20442;-78
2023/07/30 05:44:55;;;;;;;6.47;3.73;;;;;;;;;;6223542;23;20371;-77
2023/07/30 05:47:22;;;;;;;6.07;4.33;;;;;;;;;;6232023;23;20410;-77
2023/07/30 05:49:50;;;;;;;9.20;5.40;;;;;;;;;;6227347;23;20449;-77
2023/07/30 05:52:19;;;;;;;7.00;4.50;;;;;;;;;;6227633;23;20410;-77
2023/07/30 05:54:46;;;;;;;6.60;4.70;;;;;;;;;;6223563;23;20480;-78
2023/07/30 05:57:15;;;;;;;8.73;4.80;;;;;;;;;;6224567;23;20452;-77
2023/07/30 05:59:43;;;;;;;11.33;4.70;;;;;;;;;;6224101;23;20402;-78
2023/07/30 06:02:10;;;;;;;8.00;4.87;;;;;;;;;;6221240;23;20414;-77
2023/07/30 06:04:38;;;;;;;8.70;5.80;;;;;;;;;;6221332;23;20414;-77
2023/07/30 06:07:05;;;;;;;9.23;4.43;;;;;;;;;;6221136;23;20407;-77
2023/07/30 06:09:42;;;;;;;7.87;4.33;;;;;;;;;;6221110;23;20856;-79
2023/07/30 06:12:10;;;;;;;7.90;5.20;;;;;;;;;;6222284;23;20452;-77
2023/07/30 06:14:39;;;;;;;9.50;4.97;;;;;;;;;;6221168;23;20422;-78
2023/07/30 06:17:08;;;;;;;7.93;4.60;;;;;;;;;;6221469;23;20410;-77
2023/07/30 06:19:36;;;;;;;7.60;4.83;;;;;;;;;;6221427;23;20446;-80
2023/07/30 06:22:04;;;;;;;6.80;5.33;;;;;;;;;;6222667;23;20437;-77
2023/07/30 06:24:31;;;;;;;8.90;5.30;;;;;;;;;;6223224;23;20421;-77
2023/07/30 06:26:59;;;;;;;7.67;4.10;;;;;;;;;;6221764;23;20651;-78
2023/07/30 06:29:26;;;;;;;7.70;4.80;;;;;;;;;;6228332;23;20430;-78
2023/07/30 06:31:55;;;;;;;8.80;4.53;;;;;;;;;;6225923;23;20426;-78
2023/07/30 06:34:24;;;;;;;7.50;4.83;;;;;;;;;;6226893;23;20793;-78
2023/07/30 06:36:52;;;;;;;9.00;4.90;;;;;;;;;;6231090;23;20410;-78
2023/07/30 06:39:20;;;;;;;9.17;5.67;;;;;;;;;;6226234;23;20402;-78
2023/07/30 06:41:48;;;;;;;7.70;5.20;;;;;;;;;;6229806;23;20446;-78
2023/07/30 06:44:19;;;;;;;7.67;5.17;;;;;;;;;;6229138;23;20474;-78
2023/07/30 06:46:46;;;;;;;10.83;5.50;;;;;;;;;;6226371;23;20779;-78
2023/07/30 06:49:17;;;;;;;8.53;5.47;;;;;;;;;;6227495;23;20568;-76
2023/07/30 06:51:45;;;;;;;11.17;5.40;;;;;;;;;;6228091;23;20449;-79
2023/07/30 06:54:12;;;;;;;6.93;4.77;;;;;;;;;;6226676;23;20864;-79
2023/07/30 06:56:40;;;;;;;10.50;5.70;;;;;;;;;;6229331;23;20453;-79
2023/07/30 06:59:08;;;;;;;11.80;5.20;;;;;;;;;;6228874;23;20660;-78
2023/07/30 07:01:36;;;;;;;11.63;4.37;;;;;;;;;;6228361;23;20425;-78
2023/07/30 07:04:03;;;;;;;11.27;5.67;;;;;;;;;;6228934;23;20406;-78
2023/07/30 07:06:32;;;;;;;19.60;5.30;;;;;;;;;;6229323;23;20378;-78
2023/07/30 07:09:00;;;;;;;10.97;4.63;;;;;;;;;;6229228;23;20446;-78
2023/07/30 07:11:27;;;;;;;8.50;5.43;;;;;;;;;;6223663;23;20808;-78
2023/07/30 07:13:55;;;;;;;9.43;4.17;;;;;;;;;;6225312;23;20414;-78
2023/07/30 07:16:22;;;;;;;10.67;4.37;;;;;;;;;;6223842;23;20424;-79
2023/07/30 07:18:50;;;;;;;5.87;3.37;;;;;;;;;;6224920;23;20788;-78
2023/07/30 07:21:17;;;;;;;8.63;4.40;;;;;;;;;;6225652;23;20750;-79
2023/07/30 07:23:46;;;;;;;7.80;3.80;;;;;;;;;;6226348;23;20403;-78
2023/07/30 07:26:14;;;;;;;11.77;4.50;;;;;;;;;;6226686;23;20703;-80
2023/07/30 07:28:41;;;;;;;6.97;3.30;;;;;;;;;;6225424;23;20446;-78
2023/07/30 07:31:09;;;;;;;6.63;3.40;;;;;;;;;;6224871;23;20646;-78
2023/07/30 07:33:37;;;;;;;6.57;3.20;;;;;;;;;;6226105;23;20402;-78
2023/07/30 07:36:06;;;;;;;7.63;3.00;;;;;;;;;;6222457;23;20432;-78
2023/07/30 07:38:33;;;;;;;9.23;3.60;;;;;;;;;;6227888;23;20419;-77
2023/07/30 07:41:02;;;;;;;8.63;3.57;;;;;;;;;;6224541;23;20463;-78
2023/07/30 07:43:30;;;;;;;7.53;3.40;;;;;;;;;;6226057;23;20394;-78
2023/07/30 07:45:58;;;;;;;10.47;3.20;;;;;;;;;;6225014;23;20418;-79
2023/07/30 07:48:25;;;;;;;9.83;3.10;;;;;;;;;;6219891;23;20445;-79
2023/07/30 07:50:53;;;;;;;11.47;3.50;;;;;;;;;;6220900;23;20917;-79
2023/07/30 07:53:21;;;;;;;6.80;3.77;;;;;;;;;;6217973;23;20420;-78
2023/07/30 07:55:49;;;;;;;6.23;3.00;;;;;;;;;;6217957;23;20689;-79
2023/07/30 07:58:18;;;;;;;4.77;2.60;;;;;;;;;;6216743;23;20401;-81
2023/07/30 08:00:46;;;;;;;9.80;3.37;;;;;;;;;;6222982;23;20731;-77
2023/07/30 08:03:13;;;;;;;7.07;2.90;;;;;;;;;;6218648;23;20426;-80
2023/07/30 08:05:41;;;;;;;12.03;3.83;;;;;;;;;;6223760;23;20428;-79
2023/07/30 08:08:09;;;;;;;9.43;2.73;;;;;;;;;;6217856;23;20418;-79
2023/07/30 08:10:42;;;;;;;7.80;2.77;;;;;;;;;;6227386;23;20393;-79
2023/07/30 08:13:10;;;;;;;5.03;2.37;;;;;;;;;;6227218;23;20457;-79
2023/07/30 08:15:39;;;;;;;7.17;3.30;;;;;;;;;;6223623;23;20409;-79
2023/07/30 08:18:06;;;;;;;10.50;2.90;;;;;;;;;;6223962;23;20417;-79
2023/07/30 08:20:34;;;;;;;9.03;3.13;;;;;;;;;;6222707;23;20410;-79
2023/07/30 08:23:02;;;;;;;7.50;2.87;;;;;;;;;;6223961;23;20704;-80
2023/07/30 08:25:29;;;;;;;7.87;2.97;;;;;;;;;;6219440;23;20395;-78
2023/07/30 08:27:57;;;;;;;6.90;2.70;;;;;;;;;;6221166;23;20398;-80
2023/07/30 08:30:24;;;;;;;4.47;2.07;;;;;;;;;;6220197;23;20442;-79
2023/07/30 08:32:54;;;;;;;7.10;2.73;;;;;;;;;;6221617;23;20421;-79
2023/07/30 08:35:21;;;;;;;11.30;2.80;;;;;;;;;;6219245;23;20412;-79
2023/07/30 08:37:49;;;;;;;8.13;2.67;;;;;;;;;;6217753;23;20600;-78
2023/07/30 08:40:20;;;;;;;7.13;2.23;;;;;;;;;;6217702;23;20386;-78
2023/07/30 08:42:47;;;;;;;6.10;1.90;;;;;;;;;;6213802;23;20977;-77
2023/07/30 08:45:18;;;;;;;5.13;2.40;;;;;;;;;;6215775;23;20457;-78
2023/07/30 08:47:46;;;;;;;6.70;2.20;;;;;;;;;;6220960;23;20398;-79
2023/07/30 08:50:17;;;;;;;8.60;2.40;;;;;;;;;;6222262;23;20729;-76
2023/07/30 08:52:45;;;;;;;7.17;2.30;;;;;;;;;;6217528;23;20398;-80
2023/07/30 08:55:13;;;;;;;6.60;2.33;;;;;;;;;;6215481;23;20438;-77
2023/07/30 08:57:42;;;;;;;6.13;2.30;;;;;;;;;;6214119;23;20414;-78
2023/07/30 09:00:15;;;;;;;7.90;2.40;;;;;;;;;;6221361;23;20398;-78
2023/07/30 09:02:45;;;;;;;12.33;3.97;;;;;;;;;;6216361;23;20414;-79
2023/07/30 09:05:18;;;;;;;5.60;1.90;;;;;;;;;;6216512;23;20433;-79
2023/07/30 09:07:45;;;;;;;5.63;2.13;;;;;;;;;;6219125;23;20806;-77
2023/07/30 09:10:16;;;;;;;5.43;2.63;;;;;;;;;;6219432;23;20461;-78
2023/07/30 09:12:44;;;;;;;8.20;2.30;;;;;;;;;;6220796;23;20484;-77
2023/07/30 09:15:12;;;;;;;8.53;2.60;;;;;;;;;;6224218;23;20504;-77
2023/07/30 09:17:40;;;;;;;7.27;2.00;;;;;;;;;;6222971;23;20418;-77
2023/07/30 09:20:08;;;;;;;13.20;2.40;;;;;;;;;;6225931;23;20410;-78
2023/07/30 09:22:39;;;;;;;10.40;2.10;;;;;;;;;;6223475;23;20499;-77
2023/07/30 09:25:09;;;;;;;6.53;2.27;;;;;;;;;;6223001;23;20533;-78
2023/07/30 09:27:37;;;;;;;6.73;2.63;;;;;;;;;;6225486;23;20488;-77
2023/07/30 09:30:10;;;;;;;12.70;3.13;;;;;;;;;;6225154;23;20437;-77
2023/07/30 09:32:39;;;;;;;5.70;2.13;;;;;;;;;;6223014;23;20437;-78
2023/07/30 09:35:07;;;;;;;7.93;2.60;;;;;;;;;;6223224;23;20422;-79
2023/07/30 09:37:35;;;;;;;7.57;3.10;;;;;;;;;;6217107;23;20539;-77
2023/07/30 09:40:20;;;;;;;6.27;1.97;;;;;;;;;;6220178;23;20502;-79
2023/07/30 09:42:48;;;;;;;4.93;2.03;;;;;;;;;;6215513;23;20856;-79
2023/07/30 09:45:19;;;;;;;8.70;2.17;;;;;;;;;;6216470;23;20422;-78
2023/07/30 09:47:54;;;;;;;4.70;2.10;;;;;;;;;;6216041;23;20414;-77
2023/07/30 09:50:22;;;;;;;5.03;1.63;;;;;;;;;;6216000;23;20460;-78
2023/07/30 09:52:50;;;;;;;7.10;2.43;;;;;;;;;;6218099;23;20785;-78
2023/07/30 09:55:19;;;;;;;6.23;2.20;;;;;;;;;;6217676;23;20436;-78
2023/07/30 09:57:47;;;;;;;8.67;2.50;;;;;;;;;;6219653;23;20484;-78
2023/07/30 10:00:18;;;;;;;6.90;2.70;;;;;;;;;;6225569;23;20434;-78
2023/07/30 10:02:47;;;;;;;8.70;2.80;;;;;;;;;;6218380;23;20450;-78
2023/07/30 10:05:16;;;;;;;6.10;2.13;;;;;;;;;;6218254;23;20659;-78
2023/07/30 10:07:46;;;;;;;11.80;2.50;;;;;;;;;;6219375;23;20394;-77
2023/07/30 10:10:17;;;;;;;9.50;3.80;;;;;;;;;;6218741;23;21077;-78
2023/07/30 10:12:46;;;;;;;8.53;2.70;;;;;;;;;;6221594;23;20824;-78
2023/07/30 10:15:13;;;;;;;8.00;1.90;;;;;;;;;;6222298;23;20421;-78
2023/07/30 10:17:41;;;;;;;9.80;2.80;;;;;;;;;;6220101;23;20414;-78
2023/07/30 10:20:23;;;;;;;8.23;3.33;;;;;;;;;;6222417;23;20903;-77
2023/07/30 10:22:53;;;;;;;7.97;2.40;;;;;;;;;;6221625;23;20803;-78
2023/07/30 10:25:22;;;;;;;7.83;1.90;;;;;;;;;;6221873;23;20386;-78
2023/07/30 10:27:56;;;;;;;6.60;2.50;;;;;;;;;;6225250;23;20453;-79
2023/07/30 10:30:34;;;;;;;4.83;2.30;;;;;;;;;;6228848;23;20434;-79
2023/07/30 10:33:03;;;;;;;8.20;3.13;;;;;;;;;;6225466;23;20444;-79
2023/07/30 10:35:37;;;;;;;7.00;2.60;;;;;;;;;;6227667;23;20853;-79
2023/07/30 10:38:24;;;;;;;8.10;2.87;;;;;;;;;;6227223;23;20465;-79
2023/07/30 10:41:02;;;;;;;9.67;4.43;;;;;;;;;;6223941;23;20422;-77
2023/07/30 10:43:38;;;;;;;5.57;2.13;;;;;;;;;;6225294;23;20577;-79
2023/07/30 10:46:07;;;;;;;7.33;2.93;;;;;;;;;;6225606;23;20453;-82
2023/07/30 10:48:36;;;;;;;5.80;2.47;;;;;;;;;;6222428;23;20422;-77
2023/07/30 10:51:04;;;;;;;11.83;3.13;;;;;;;;;;6220208;23;20445;-78
2023/07/30 10:53:32;;;;;;;6.33;2.40;;;;;;;;;;6222751;23;20424;-81
2023/07/30 10:56:02;;;;;;;6.00;2.77;;;;;;;;;;6221382;23;20469;-78
2023/07/30 10:58:32;;;;;;;8.60;2.83;;;;;;;;;;6225075;23;20425;-81
2023/07/30 11:01:03;;;;;;;5.07;2.20;;;;;;;;;;6224056;23;20438;-78
2023/07/30 11:03:32;;;;;;;6.93;2.27;;;;;;;;;;6223433;23;20406;-79
2023/07/30 11:06:00;;;;;;;9.37;2.50;;;;;;;;;;6223199;23;20466;-80
2023/07/30 11:08:37;;;;;;;6.67;3.30;;;;;;;;;;6226126;23;20488;-79
2023/07/30 11:11:05;;;;;;;4.80;2.17;;;;;;;;;;6225151;23;20446;-79
2023/07/30 11:13:37;;;;;;;6.03;2.30;;;;;;;;;;6223185;23;20395;-78
2023/07/30 11:16:07;;;;;;;3.93;2.30;;;;;;;;;;6218057;23;20834;-80
2023/07/30 11:18:35;;;;;;;4.93;2.40;;;;;;;;;;6225577;23;20414;-79
2023/07/30 11:21:11;;;;;;;7.27;2.80;;;;;;;;;;6225422;23;20426;-77
2023/07/30 11:23:39;;;;;;;12.53;3.20;;;;;;;;;;6226351;23;20402;-79
2023/07/30 11:26:08;;;;;;;13.87;2.53;;;;;;;;;;6222021;23;20452;-79
2023/07/30 11:28:38;;;;;;;6.27;2.63;;;;;;;;;;6225827;23;20416;-79
2023/07/30 11:31:07;;;;;;;6.57;2.67;;;;;;;;;;6199489;23;20446;-77
2023/07/30 11:33:37;;;;;;;6.43;2.37;;;;;;;;;;6224464;23;20410;-79
2023/07/30 11:36:05;;;;;;;9.77;3.33;;;;;;;;;;6222048;23;20406;-78
2023/07/30 11:38:33;;;;;;;8.73;2.90;;;;;;;;;;6220944;23;20394;-77
2023/07/30 11:41:01;;;;;;;9.33;2.47;;;;;;;;;;6222375;23;20495;-78
2023/07/30 11:43:29;;;;;;;5.40;2.80;;;;;;;;;;6221526;23;20391;-78
2023/07/30 11:46:12;;;;;;;6.70;2.40;;;;;;;;;;6221256;23;20424;-78
2023/07/30 11:48:41;;;;;;;5.97;2.40;;;;;;;;;;6220853;23;20421;-78
2023/07/30 11:51:08;;;;;;;7.73;2.50;;;;;;;;;;6221682;23;20539;-78
2023/07/30 11:53:45;;;;;;;6.13;3.07;;;;;;;;;;6221360;23;20418;-78
2023/07/30 11:56:16;;;;;;;6.37;2.80;;;;;;;;;;6222227;23;20598;-79
2023/07/30 11:58:44;;;;;;;7.00;2.33;;;;;;;;;;6220689;23;20395;-79
2023/07/30 12:01:13;;;;;;;5.47;2.60;;;;;;;;;;6217516;23;20489;-79
2023/07/30 12:03:44;;;;;;;7.90;3.30;;;;;;;;;;6217506;23;20453;-78
2023/07/30 12:06:16;;;;;;;8.20;2.70;;;;;;;;;;6216682;23;20424;-77
2023/07/30 12:08:44;;;;;;;7.17;2.20;;;;;;;;;;6220975;23;20480;-78
2023/07/30 12:11:14;;;;;;;9.63;2.77;;;;;;;;;;6221638;23;20453;-78
2023/07/30 12:13:46;;;;;;;5.60;2.10;;;;;;;;;;6222796;23;20485;-79
2023/07/30 12:16:22;;;;;;;5.03;2.57;;;;;;;;;;6223933;23;20759;-78
2023/07/30 12:18:58;;;;;;;6.90;2.63;;;;;;;;;;6223231;23;20418;-77
2023/07/30 12:21:32;;;;;;;6.23;2.23;;;;;;;;;;6226105;23;20410;-77
2023/07/30 12:24:01;;;;;;;6.50;3.00;;;;;;;;;;6219141;23;20437;-77
2023/07/30 12:26:31;;;;;;;11.33;2.50;;;;;;;;;;6225038;23;20422;-77
2023/07/30 12:29:00;;;;;;;6.40;2.40;;;;;;;;;;6223343;23;20398;-77
2023/07/30 12:31:29;;;;;;;5.83;2.37;;;;;;;;;;6224015;23;20461;-77
2023/07/30 12:33:58;;;;;;;5.70;2.30;;;;;;;;;;6223227;23;20449;-78
2023/07/30 12:36:26;;;;;;;3.50;1.70;;;;;;;;;;6224000;23;20418;-78
2023/07/30 12:38:54;;;;;;;6.00;2.60;;;;;;;;;;6224613;23;20426;-78
2023/07/30 12:41:25;;;;;;;9.17;2.67;;;;;;;;;;6225071;23;20471;-78
2023/07/30 12:43:56;;;;;;;6.40;2.53;;;;;;;;;;6222804;23;20396;-77
2023/07/30 12:46:32;;;;;;;7.60;2.73;;;;;;;;;;6228728;23;20421;-77
2023/07/30 12:49:03;;;;;;;10.47;3.40;;;;;;;;;;6228730;23;20430;-78
2023/07/30 12:51:43;;;;;;;7.93;2.40;;;;;;;;;;6230414;23;20982;-78
2023/07/30 12:54:12;;;;;;;6.43;2.13;;;;;;;;;;6230104;23;20417;-78
2023/07/30 12:56:40;;;;;;;8.07;2.27;;;;;;;;;;6225186;23;20446;-78
2023/07/30 12:59:13;;;;;;;8.17;2.30;;;;;;;;;;6224346;23;20816;-77
2023/07/30 13:01:40;;;;;;;8.00;2.53;;;;;;;;;;6226258;23;20409;-78
2023/07/30 13:04:10;;;;;;;6.43;2.80;;;;;;;;;;6230158;23;20397;-77
2023/07/30 13:06:38;;;;;;;5.27;1.90;;;;;;;;;;6232531;23;20433;-79
2023/07/30 13:09:06;;;;;;;7.57;2.80;;;;;;;;;;6230665;23;20410;-78
2023/07/30 13:11:36;;;;;;;5.10;1.70;;;;;;;;;;6233374;23;20448;-78
2023/07/30 13:14:04;;;;;;;5.43;1.97;;;;;;;;;;6235435;23;20410;-78
2023/07/30 13:16:32;;;;;;;5.60;3.40;;;;;;;;;;6235560;23;20660;-78
2023/07/30 13:19:00;;;;;;;6.17;2.27;;;;;;;;;;6232310;23;20418;-77
2023/07/30 13:21:30;;;;;;;4.50;3.83;;;;;;;;;;6231708;23;20418;-79
2023/07/30 13:23:58;;;;;;;5.63;1.87;;;;;;;;;;6225342;23;20460;-78
2023/07/30 13:26:27;;;;;;;5.20;2.00;;;;;;;;;;6225567;23;20420;-78
2023/07/30 13:28:57;;;;;;;5.53;1.90;;;;;;;;;;6227641;23;20434;-78
2023/07/30 13:31:25;;;;;;;3.83;1.30;;;;;;;;;;6220221;23;20741;-78
2023/07/30 13:33:56;;;;;;;4.57;1.80;;;;;;;;;;6221714;23;20414;-79
2023/07/30 13:36:23;;;;;;;4.80;1.70;;;;;;;;;;6220536;23;20414;-78
2023/07/30 13:38:53;;;;;;;7.63;2.00;;;;;;;;;;6222125;23;20414;-78
2023/07/30 13:41:23;;;;;;;4.10;2.00;;;;;;;;;;6221186;23;20418;-78
2023/07/30 13:43:51;;;;;;;3.80;1.70;;;;;;;;;;6222191;23;20397;-78
2023/07/30 13:46:18;;;;;;;4.70;2.13;;;;;;;;;;6225040;23;20506;-78
2023/07/30 13:48:46;;;;;;;4.23;2.03;;;;;;;;;;6226001;23;20481;-78
2023/07/30 13:51:14;;;;;;;6.53;2.00;;;;;;;;;;6223933;23;20579;-77
2023/07/30 13:53:42;;;;;;;7.13;2.17;;;;;;;;;;6222288;23;20422;-77
2023/07/30 13:56:11;;;;;;;4.83;2.10;;;;;;;;;;6220483;23;21079;-79
2023/07/30 13:58:40;;;;;;;4.90;2.37;;;;;;;;;;6223009;23;20390;-78
2023/07/30 14:01:09;;;;;;;4.10;2.07;;;;;;;;;;6220119;23;20987;-78
2023/07/30 14:03:38;;;;;;;4.87;2.30;;;;;;;;;;6215350;23;20426;-76
2023/07/30 14:06:07;;;;;;;4.00;1.83;;;;;;;;;;6216340;23;20406;-77
2023/07/30 14:08:36;;;;;;;5.33;1.60;;;;;;;;;;6219487;23;20640;-78
2023/07/30 14:11:06;;;;;;;3.83;1.33;;;;;;;;;;6221077;23;20447;-78
2023/07/30 14:13:37;;;;;;;4.10;1.20;;;;;;;;;;6222129;23;20390;-79
2023/07/30 14:16:05;;;;;;;7.10;1.00;;;;;;;;;;6221740;23;20423;-79
2023/07/30 14:18:33;;;;;;;6.67;1.53;;;;;;;;;;6222136;23;20421;-79
2023/07/30 14:21:02;;;;;;;4.93;1.43;;;;;;;;;;6223347;23;20414;-79
2023/07/30 14:23:31;;;;;;;4.63;1.30;;;;;;;;;;6222859;23;20454;-77
2023/07/30 14:25:59;;;;;;;4.83;1.50;;;;;;;;;;6220551;23;20414;-78
2023/07/30 14:28:27;;;;;;;2.80;1.37;;;;;;;;;;6218756;23;20560;-78
2023/07/30 14:30:56;;;;;;;4.07;2.00;;;;;;;;;;6219398;23;20450;-78
2023/07/30 14:33:24;;;;;;;4.10;1.40;;;;;;;;;;6216249;23;20398;-78
2023/07/30 14:35:52;;;;;;;3.67;2.10;;;;;;;;;;6215331;23;20413;-78
2023/07/30 14:38:20;;;;;;;4.93;1.60;;;;;;;;;;6212367;23;20422;-78
2023/07/30 14:40:49;;;;;;;6.20;1.90;;;;;;;;;;6217215;23;20426;-78
2023/07/30 14:43:22;;;;;;;6.10;2.10;;;;;;;;;;6218500;23;20430;-78
2023/07/30 14:45:58;;;;;;;4.60;2.60;;;;;;;;;;6218685;23;20430;-78
2023/07/30 14:48:26;;;;;;;4.03;2.33;;;;;;;;;;6217106;23;20456;-76
2023/07/30 14:50:54;;;;;;;6.40;2.20;;;;;;;;;;6220302;23;20430;-77